Preview of NWS' New Version of Forecast
This preview is not operational and should not be used for support decisions.

Terminal Aerodrome Forecast (TAF)

Issued by National Weather Service (NWS)

                            
000
FTUS46 KMTR 200550
TAFSTS
TAF
KSTS 200550Z 2006/2106 15005KT P6SM SKC
     FM201000 00000KT P6SM OVC005
     FM201700 VRB03KT P6SM SKC
     FM202200 19008KT P6SM SKC=